createdAt,value
2023-04-22T00:00:17.182Z,6.40
2023-04-22T00:03:05.288Z,7.20
2023-04-22T00:05:53.639Z,8.63
2023-04-22T00:08:40.196Z,6.90
2023-04-22T00:11:27.286Z,7.47
2023-04-22T00:14:13.840Z,11.80
2023-04-22T00:17:00.505Z,6.30
2023-04-22T00:19:47.729Z,6.30
2023-04-22T00:22:35.752Z,13.90
2023-04-22T00:25:22.492Z,10.13
2023-04-22T00:28:09.390Z,10.73
2023-04-22T00:30:56.065Z,8.63
2023-04-22T00:33:43.141Z,8.00
2023-04-22T00:36:29.799Z,7.30
2023-04-22T00:39:18.046Z,9.83
2023-04-22T00:42:04.904Z,7.47
2023-04-22T00:44:52.583Z,8.93
2023-04-22T00:47:39.278Z,12.87
2023-04-22T00:50:26.090Z,8.63
2023-04-22T00:53:12.890Z,10.87
2023-04-22T00:56:01.254Z,11.87
2023-04-22T00:58:48.134Z,9.70
2023-04-22T01:01:35.243Z,9.83
2023-04-22T01:04:23.220Z,9.83
2023-04-22T01:07:09.926Z,7.93
2023-04-22T01:09:56.729Z,10.60
2023-04-22T01:12:44.834Z,10.13
2023-04-22T01:15:31.734Z,8.90
2023-04-22T01:18:19.871Z,8.90
2023-04-22T01:21:07.278Z,10.40
2023-04-22T01:23:55.761Z,9.00
2023-04-22T01:26:42.284Z,8.50
2023-04-22T01:29:29.223Z,9.37
2023-04-22T01:32:15.878Z,10.03
2023-04-22T01:35:02.884Z,10.43
2023-04-22T01:37:49.403Z,8.53
2023-04-22T01:40:39.165Z,9.27
2023-04-22T01:43:26.474Z,8.60
2023-04-22T01:46:13.353Z,16.83
2023-04-22T01:49:00.025Z,10.50
2023-04-22T01:51:46.657Z,10.03
2023-04-22T01:54:33.996Z,8.10
2023-04-22T01:57:22.098Z,9.60
2023-04-22T02:00:10.335Z,10.73
2023-04-22T02:03:00.009Z,9.30
2023-04-22T02:05:46.836Z,10.87
2023-04-22T02:08:33.588Z,10.00
2023-04-22T02:11:21.418Z,10.63
2023-04-22T02:14:09.643Z,9.73
2023-04-22T02:16:56.491Z,8.37
2023-04-22T02:19:43.444Z,11.13
2023-04-22T02:22:30.696Z,12.73
2023-04-22T02:25:17.811Z,11.17
2023-04-22T02:28:04.336Z,11.70
2023-04-22T02:30:52.745Z,11.37
2023-04-22T02:33:42.461Z,11.23
2023-04-22T02:36:29.304Z,12.37
2023-04-22T02:39:16.046Z,10.77
2023-04-22T02:42:03.010Z,9.00
2023-04-22T02:44:49.715Z,13.87
2023-04-22T02:47:38.011Z,12.03
2023-04-22T02:50:24.697Z,12.53
2023-04-22T02:53:11.614Z,13.03
2023-04-22T02:55:58.525Z,8.70
2023-04-22T02:58:45.263Z,12.60
2023-04-22T03:01:32.355Z,11.10
2023-04-22T03:04:23.413Z,10.77
2023-04-22T03:07:10.403Z,13.37
2023-04-22T03:09:57.017Z,13.43
2023-04-22T03:12:44.312Z,12.70
2023-04-22T03:15:31.734Z,11.97
2023-04-22T03:18:18.208Z,12.80
2023-04-22T03:21:07.438Z,15.67
2023-04-22T03:23:54.006Z,11.30
2023-04-22T03:26:41.236Z,12.20
2023-04-22T03:29:28.424Z,19.53
2023-04-22T03:32:15.264Z,15.63
2023-04-22T03:35:01.879Z,11.37
2023-04-22T03:37:50.442Z,14.17
2023-04-22T03:40:42.286Z,9.90
2023-04-22T03:43:51.702Z,8.83
2023-04-22T03:46:38.545Z,12.60
2023-04-22T03:49:34.433Z,11.77
2023-04-22T03:52:21.188Z,13.37
2023-04-22T03:55:17.288Z,15.83
2023-04-22T03:58:04.495Z,10.73
2023-04-22T04:00:51.217Z,12.40
2023-04-22T04:03:39.250Z,12.77
2023-04-22T04:06:28.194Z,11.87
2023-04-22T04:09:14.769Z,13.10
2023-04-22T04:12:03.072Z,13.23
2023-04-22T04:14:55.100Z,13.33
2023-04-22T04:17:42.953Z,12.70
2023-04-22T04:20:29.734Z,12.20
2023-04-22T04:23:16.150Z,18.00
2023-04-22T04:26:05.835Z,13.47
2023-04-22T04:29:01.903Z,19.17
2023-04-22T04:31:48.987Z,13.03
2023-04-22T04:34:38.314Z,13.97
2023-04-22T04:37:27.554Z,12.07
2023-04-22T04:40:19.247Z,13.20
2023-04-22T04:43:13.082Z,12.77
2023-04-22T04:46:10.506Z,10.73
2023-04-22T04:49:02.917Z,15.03
2023-04-22T04:52:03.522Z,13.13
2023-04-22T04:54:50.044Z,15.80
2023-04-22T04:57:38.384Z,12.07
2023-04-22T05:00:29.314Z,12.47
2023-04-22T05:03:21.943Z,16.13
2023-04-22T05:06:10.864Z,14.63
2023-04-22T05:09:00.534Z,12.23
2023-04-22T05:11:46.948Z,16.27
2023-04-22T05:14:38.719Z,12.23
2023-04-22T05:17:25.646Z,10.10
2023-04-22T05:20:14.340Z,15.40
2023-04-22T05:23:01.462Z,12.23
2023-04-22T05:25:48.466Z,15.17
2023-04-22T05:28:36.250Z,10.93
2023-04-22T05:31:23.856Z,9.23
2023-04-22T05:34:12.068Z,10.70
2023-04-22T05:37:01.386Z,13.70
2023-04-22T05:39:48.247Z,11.60
2023-04-22T05:42:35.993Z,13.77
2023-04-22T05:45:22.653Z,11.23
2023-04-22T05:48:10.068Z,15.23
2023-04-22T05:51:02.692Z,12.97
2023-04-22T05:53:51.776Z,16.80
2023-04-22T05:56:38.581Z,17.10
2023-04-22T05:59:25.232Z,15.60
2023-04-22T06:02:12.015Z,15.30
2023-04-22T06:05:01.130Z,14.50
2023-04-22T06:07:47.903Z,14.80
2023-04-22T06:10:36.178Z,21.93
2023-04-22T06:13:23.052Z,15.67
2023-04-22T06:16:10.255Z,12.83
2023-04-22T06:18:57.070Z,14.23
2023-04-22T06:21:43.896Z,11.00
2023-04-22T06:24:30.523Z,11.30
2023-04-22T06:27:18.656Z,12.23
2023-04-22T06:30:06.187Z,15.53
2023-04-22T06:32:53.456Z,15.27
2023-04-22T06:35:39.993Z,16.03
2023-04-22T06:38:26.884Z,15.00
2023-04-22T06:41:46.149Z,16.97
2023-04-22T06:45:04.344Z,16.60
2023-04-22T06:48:01.964Z,13.77
2023-04-22T06:51:03.820Z,14.57
2023-04-22T06:53:51.221Z,17.13
2023-04-22T06:56:38.466Z,14.37
2023-04-22T06:59:24.921Z,15.80
2023-04-22T07:02:13.369Z,13.73
2023-04-22T07:05:00.634Z,12.67
2023-04-22T07:07:48.022Z,13.23
2023-04-22T07:10:39.275Z,14.87
2023-04-22T07:13:48.238Z,14.13
2023-04-22T07:16:34.759Z,11.43
2023-04-22T07:19:22.833Z,10.73
2023-04-22T07:22:09.648Z,11.30
2023-04-22T07:24:56.370Z,14.07
2023-04-22T07:27:43.111Z,9.97
2023-04-22T07:30:29.989Z,12.47
2023-04-22T07:33:16.800Z,11.00
2023-04-22T07:36:05.343Z,10.40
2023-04-22T07:38:52.232Z,9.97
2023-04-22T07:41:39.192Z,11.33
2023-04-22T07:44:25.846Z,10.20
2023-04-22T07:47:12.922Z,12.47
2023-04-22T07:49:59.839Z,8.73
2023-04-22T07:52:47.712Z,9.40
2023-04-22T07:55:35.209Z,11.67
2023-04-22T07:58:21.773Z,11.13
2023-04-22T08:01:08.585Z,16.47
2023-04-22T08:03:55.662Z,12.00
2023-04-22T08:06:42.859Z,9.73
2023-04-22T08:09:30.782Z,11.93
2023-04-22T08:12:17.571Z,18.53
2023-04-22T08:15:04.836Z,13.40
2023-04-22T08:17:51.689Z,13.73
2023-04-22T08:20:38.445Z,8.60
2023-04-22T08:23:25.540Z,13.60
2023-04-22T08:26:15.281Z,11.70
2023-04-22T08:29:02.478Z,14.60
2023-04-22T08:31:49.288Z,11.20
2023-04-22T08:34:37.178Z,8.57
2023-04-22T08:37:24.092Z,13.20
2023-04-22T08:40:11.261Z,12.37
2023-04-22T08:42:59.635Z,12.87
2023-04-22T08:45:46.493Z,13.23
2023-04-22T08:48:33.799Z,12.47
2023-04-22T08:51:20.270Z,12.90
2023-04-22T08:54:07.429Z,12.87
2023-04-22T08:56:55.133Z,12.87
2023-04-22T08:59:43.502Z,15.10
2023-04-22T09:02:33.171Z,15.33
2023-04-22T09:05:21.535Z,10.67
2023-04-22T09:08:09.037Z,14.90
2023-04-22T09:10:55.767Z,11.03
2023-04-22T09:13:43.531Z,11.67
2023-04-22T09:16:32.900Z,11.33
2023-04-22T09:19:19.669Z,10.40
2023-04-22T09:22:07.194Z,12.87
2023-04-22T09:24:57.775Z,11.83
2023-04-22T09:27:44.543Z,11.67
2023-04-22T09:30:47.445Z,14.57
2023-04-22T09:33:40.209Z,12.47
2023-04-22T09:36:28.345Z,13.20
2023-04-22T09:39:15.031Z,10.73
2023-04-22T09:42:02.073Z,16.10
2023-04-22T09:44:49.761Z,12.63
2023-04-22T09:47:37.617Z,11.70
2023-04-22T09:50:27.985Z,12.00
2023-04-22T09:53:17.667Z,13.27
2023-04-22T09:56:05.970Z,10.77
2023-04-22T09:58:53.725Z,12.37
2023-04-22T10:01:41.528Z,10.87
2023-04-22T10:04:28.868Z,13.77
2023-04-22T10:07:17.687Z,15.53
2023-04-22T10:10:04.638Z,15.37
2023-04-22T10:12:53.039Z,12.60
2023-04-22T10:15:42.507Z,11.20
2023-04-22T10:18:30.893Z,11.93
2023-04-22T10:21:19.782Z,11.97
2023-04-22T10:24:08.218Z,11.90
2023-04-22T10:26:57.910Z,11.70
2023-04-22T10:29:44.711Z,14.13
2023-04-22T10:32:32.061Z,18.03
2023-04-22T10:35:29.104Z,14.30
2023-04-22T10:38:15.446Z,13.97
2023-04-22T10:41:04.450Z,13.40
2023-04-22T10:43:58.709Z,14.90
2023-04-22T10:47:02.051Z,13.40
2023-04-22T10:49:51.668Z,9.57
2023-04-22T10:52:38.302Z,8.23
2023-04-22T10:55:26.193Z,11.33
2023-04-22T10:58:22.554Z,9.50
2023-04-22T11:01:16.803Z,10.00
2023-04-22T11:04:23.082Z,11.80
2023-04-22T11:07:17.122Z,11.03
2023-04-22T11:10:15.891Z,13.40
2023-04-22T11:13:03.508Z,12.27
2023-04-22T11:15:56.035Z,11.43
2023-04-22T11:18:42.732Z,10.57
2023-04-22T11:21:29.382Z,11.97
2023-04-22T11:24:20.703Z,13.43
2023-04-22T11:27:07.428Z,9.77
2023-04-22T11:30:03.422Z,10.60
2023-04-22T11:32:53.036Z,11.97
2023-04-22T11:35:39.750Z,12.23
2023-04-22T11:38:26.587Z,21.23
2023-04-22T11:41:13.382Z,13.33
2023-04-22T11:44:01.526Z,9.80
2023-04-22T11:46:48.271Z,12.20
2023-04-22T11:49:36.786Z,13.40
2023-04-22T11:52:23.700Z,10.47
2023-04-22T11:55:12.006Z,13.07
2023-04-22T11:58:00.498Z,8.07
2023-04-22T12:00:48.504Z,8.43
2023-04-22T12:03:35.947Z,11.60
2023-04-22T12:06:24.410Z,7.10
2023-04-22T12:09:13.928Z,11.00
2023-04-22T12:12:01.709Z,8.57
2023-04-22T12:14:49.418Z,8.07
2023-04-22T12:17:36.151Z,9.13
2023-04-22T12:20:24.594Z,9.10
2023-04-22T12:23:16.787Z,7.53
2023-04-22T12:26:03.356Z,11.63
2023-04-22T12:28:50.993Z,9.33
2023-04-22T12:31:38.736Z,8.33
2023-04-22T12:34:25.537Z,9.33
2023-04-22T12:37:12.701Z,6.57
2023-04-22T12:40:01.014Z,7.43
2023-04-22T12:42:47.773Z,9.63
2023-04-22T12:45:34.748Z,9.87
2023-04-22T12:48:21.564Z,8.00
2023-04-22T12:51:08.306Z,7.67
2023-04-22T12:53:54.988Z,7.20
2023-04-22T12:56:43.190Z,12.00
2023-04-22T12:59:29.783Z,9.30
2023-04-22T13:02:16.768Z,8.47
2023-04-22T13:05:03.383Z,8.07
2023-04-22T13:07:59.684Z,6.63
2023-04-22T13:10:53.106Z,9.40
2023-04-22T13:13:41.191Z,6.50
2023-04-22T13:16:28.054Z,6.37
2023-04-22T13:19:14.968Z,6.50
2023-04-22T13:22:01.847Z,8.93
2023-04-22T13:24:48.224Z,11.47
2023-04-22T13:27:35.136Z,8.60
2023-04-22T13:30:23.387Z,10.10
2023-04-22T13:33:10.309Z,8.87
2023-04-22T13:35:57.084Z,8.70
2023-04-22T13:38:44.005Z,8.20
2023-04-22T13:41:30.785Z,9.37
2023-04-22T13:44:17.588Z,6.93
2023-04-22T13:47:05.877Z,9.10
2023-04-22T13:49:52.709Z,9.20
2023-04-22T13:52:39.383Z,10.83
2023-04-22T13:55:26.786Z,9.23
2023-04-22T13:58:13.738Z,12.13
2023-04-22T14:01:05.877Z,8.43
2023-04-22T14:03:55.587Z,6.13
2023-04-22T14:06:42.265Z,5.93
2023-04-22T14:09:29.196Z,7.90
2023-04-22T14:12:16.110Z,15.27
2023-04-22T14:15:02.803Z,10.50
2023-04-22T14:17:49.842Z,8.77
2023-04-22T14:20:38.337Z,8.77
2023-04-22T14:23:24.802Z,8.50
2023-04-22T14:26:12.876Z,8.03
2023-04-22T14:28:59.914Z,9.57
2023-04-22T14:31:46.929Z,9.53
2023-04-22T14:34:33.847Z,8.00
2023-04-22T14:37:23.444Z,7.73
2023-04-22T14:40:12.407Z,7.43
2023-04-22T14:43:00.659Z,15.97
2023-04-22T14:45:47.877Z,11.97
2023-04-22T14:48:35.640Z,7.53
2023-04-22T14:51:22.068Z,6.43
2023-04-22T14:54:10.177Z,7.90
2023-04-22T14:56:56.949Z,7.63
2023-04-22T14:59:43.771Z,11.23
2023-04-22T15:02:32.624Z,7.77
2023-04-22T15:05:19.345Z,7.33
2023-04-22T15:08:06.561Z,8.17
2023-04-22T15:10:54.452Z,7.87
2023-04-22T15:13:41.267Z,10.17
2023-04-22T15:16:28.039Z,6.60
2023-04-22T15:19:15.088Z,9.53
2023-04-22T15:22:01.841Z,10.60
2023-04-22T15:24:48.542Z,7.33
2023-04-22T15:27:36.806Z,10.17
2023-04-22T15:30:24.064Z,6.37
2023-04-22T15:33:10.571Z,8.07
2023-04-22T15:35:57.446Z,10.73
2023-04-22T15:38:44.320Z,8.83
2023-04-22T15:41:31.173Z,8.60
2023-04-22T15:44:19.518Z,9.13
2023-04-22T15:47:07.286Z,8.27
2023-04-22T15:49:54.438Z,5.87
2023-04-22T15:52:41.051Z,8.00
2023-04-22T15:55:28.075Z,6.50
2023-04-22T15:58:14.734Z,8.33
2023-04-22T16:01:17.458Z,7.57
2023-04-22T16:04:06.150Z,9.07
2023-04-22T16:06:53.498Z,10.00
2023-04-22T16:09:40.269Z,9.07
2023-04-22T16:12:27.226Z,5.73
2023-04-22T16:15:14.189Z,7.67
2023-04-22T16:18:03.125Z,8.07
2023-04-22T16:20:50.217Z,9.27
2023-04-22T16:23:37.485Z,6.00
2023-04-22T16:26:24.050Z,8.53
2023-04-22T16:29:10.694Z,7.50
2023-04-22T16:31:57.715Z,8.30
2023-04-22T16:34:45.956Z,8.10
2023-04-22T16:37:32.504Z,9.33
2023-04-22T16:40:19.396Z,10.50
2023-04-22T16:43:06.428Z,9.33
2023-04-22T16:45:53.096Z,13.10
2023-04-22T16:48:39.820Z,8.30
2023-04-22T16:51:28.244Z,8.30
2023-04-22T16:54:15.007Z,10.77
2023-04-22T16:57:02.067Z,8.67
2023-04-22T16:59:48.793Z,10.27
2023-04-22T17:02:36.290Z,11.63
2023-04-22T17:05:23.201Z,11.13
2023-04-22T17:08:11.478Z,9.10
2023-04-22T17:10:58.200Z,9.37
2023-04-22T17:13:45.039Z,10.03
2023-04-22T17:16:32.424Z,9.67
2023-04-22T17:19:18.990Z,8.33
2023-04-22T17:22:05.937Z,9.00
2023-04-22T17:24:54.072Z,8.97
2023-04-22T17:27:40.552Z,12.23
2023-04-22T17:30:27.393Z,13.00
2023-04-22T17:33:14.196Z,13.97
2023-04-22T17:36:00.969Z,14.07
2023-04-22T17:38:47.909Z,16.17
2023-04-22T17:41:36.172Z,13.07
2023-04-22T17:44:25.836Z,13.17
2023-04-22T17:47:13.857Z,14.70
2023-04-22T17:50:01.297Z,14.57
2023-04-22T17:52:48.029Z,15.33
2023-04-22T17:55:35.354Z,12.33
2023-04-22T17:58:23.157Z,17.03
2023-04-22T18:01:10.246Z,29.93
2023-04-22T18:03:57.056Z,23.33
2023-04-22T18:06:43.680Z,21.07
2023-04-22T18:09:30.566Z,29.97
2023-04-22T18:12:17.414Z,21.57
2023-04-22T18:15:06.804Z,21.23
2023-04-22T18:17:53.363Z,25.93
2023-04-22T18:20:40.319Z,26.60
2023-04-22T18:23:26.954Z,28.70
2023-04-22T18:26:13.760Z,26.97
2023-04-22T18:29:00.822Z,23.03
2023-04-22T18:31:48.688Z,23.50
2023-04-22T18:34:35.570Z,17.00
2023-04-22T18:37:22.358Z,12.57
2023-04-22T18:40:10.279Z,13.07
2023-04-22T18:42:57.000Z,17.07
2023-04-22T18:45:43.673Z,10.77
2023-04-22T18:48:32.057Z,12.47
2023-04-22T18:51:18.662Z,14.73
2023-04-22T18:54:05.826Z,12.43
2023-04-22T18:56:52.722Z,10.60
2023-04-22T18:59:39.817Z,12.13
2023-04-22T19:02:26.827Z,10.73
2023-04-22T19:05:15.303Z,12.93
2023-04-22T19:08:01.780Z,10.27
2023-04-22T19:10:48.560Z,10.43
2023-04-22T19:13:35.400Z,9.53
2023-04-22T19:16:24.275Z,10.97
2023-04-22T19:19:12.722Z,11.17
2023-04-22T19:22:00.910Z,9.57
2023-04-22T19:24:48.310Z,9.33
2023-04-22T19:27:35.361Z,11.77
2023-04-22T19:30:23.100Z,16.33
2023-04-22T19:33:09.946Z,11.73
2023-04-22T19:35:56.766Z,10.10
2023-04-22T19:38:44.924Z,14.73
2023-04-22T19:41:33.560Z,29.00
2023-04-22T19:44:20.484Z,15.90
2023-04-22T19:47:08.474Z,15.80
2023-04-22T19:49:58.121Z,11.73
2023-04-22T19:52:48.681Z,13.17
2023-04-22T19:55:39.363Z,18.00
2023-04-22T19:58:28.714Z,13.67
2023-04-22T20:01:15.873Z,10.30
2023-04-22T20:04:15.661Z,12.70
2023-04-22T20:07:04.216Z,9.77
2023-04-22T20:09:53.116Z,10.73
2023-04-22T20:12:41.499Z,11.37
2023-04-22T20:15:28.661Z,15.10
2023-04-22T20:18:15.429Z,9.83
2023-04-22T20:21:02.153Z,13.20
2023-04-22T20:23:51.404Z,12.50
2023-04-22T20:26:38.666Z,10.93
2023-04-22T20:29:27.328Z,13.17
2023-04-22T20:32:14.101Z,13.80
2023-04-22T20:35:01.535Z,12.80
2023-04-22T20:37:50.928Z,12.30
2023-04-22T20:40:38.699Z,12.63
2023-04-22T20:43:25.529Z,11.80
2023-04-22T20:46:13.734Z,13.10
2023-04-22T20:49:00.538Z,14.03
2023-04-22T20:51:47.474Z,15.47
2023-04-22T20:54:34.342Z,11.93
2023-04-22T20:57:22.735Z,12.73
2023-04-22T21:00:11.658Z,11.83
2023-04-22T21:03:00.826Z,11.07
2023-04-22T21:05:47.648Z,15.47
2023-04-22T21:08:36.894Z,12.80
2023-04-22T21:11:24.150Z,13.27
2023-04-22T21:14:11.950Z,12.27
2023-04-22T21:17:02.489Z,11.50
2023-04-22T21:19:51.668Z,11.57
2023-04-22T21:22:39.245Z,12.67
2023-04-22T21:25:26.878Z,10.83
2023-04-22T21:28:14.186Z,12.13
2023-04-22T21:31:01.828Z,13.50
2023-04-22T21:33:48.268Z,11.10
2023-04-22T21:36:36.490Z,14.47
2023-04-22T21:39:23.418Z,12.47
2023-04-22T21:42:10.585Z,9.60
2023-04-22T21:44:57.366Z,14.47
2023-04-22T21:47:44.290Z,10.90
2023-04-22T21:50:31.556Z,9.00
2023-04-22T21:53:20.789Z,10.83
2023-04-22T21:56:07.832Z,13.37
2023-04-22T21:58:55.708Z,12.43
2023-04-22T22:01:42.369Z,10.90
2023-04-22T22:04:29.249Z,11.37
2023-04-22T22:07:17.591Z,15.83
2023-04-22T22:10:06.594Z,9.73
2023-04-22T22:12:53.263Z,11.97
2023-04-22T22:15:40.121Z,11.33
2023-04-22T22:18:27.134Z,10.17
2023-04-22T22:21:14.029Z,9.07
2023-04-22T22:24:00.800Z,11.47
2023-04-22T22:26:49.188Z,11.43
2023-04-22T22:29:35.902Z,12.93
2023-04-22T22:32:22.624Z,10.47
2023-04-22T22:35:10.205Z,11.43
2023-04-22T22:37:56.779Z,10.73
2023-04-22T22:40:43.549Z,12.77
2023-04-22T22:43:31.820Z,15.07
2023-04-22T22:46:18.864Z,11.43
2023-04-22T22:49:05.619Z,14.30
2023-04-22T22:51:52.425Z,12.93
2023-04-22T22:54:40.429Z,8.90
2023-04-22T22:57:27.479Z,12.77
2023-04-22T23:00:16.303Z,15.47
2023-04-22T23:03:03.041Z,11.13
2023-04-22T23:05:49.678Z,9.53
2023-04-22T23:08:36.464Z,15.50
2023-04-22T23:11:23.238Z,12.00
2023-04-22T23:14:10.731Z,11.13
2023-04-22T23:16:58.873Z,13.60
2023-04-22T23:19:46.459Z,14.23
2023-04-22T23:22:34.864Z,10.53
2023-04-22T23:25:21.753Z,12.67
2023-04-22T23:28:08.762Z,11.03
2023-04-22T23:30:56.915Z,13.57
2023-04-22T23:33:46.378Z,11.97
2023-04-22T23:36:36.719Z,10.90
2023-04-22T23:39:23.411Z,10.17
2023-04-22T23:42:10.035Z,14.63
2023-04-22T23:44:56.803Z,13.30
2023-04-22T23:47:43.589Z,16.63
2023-04-22T23:50:31.694Z,14.03
2023-04-22T23:53:18.662Z,13.83
2023-04-22T23:56:05.995Z,17.13
2023-04-22T23:58:54.314Z,11.60
